WetterOnline ( https://www.wetteronline.ch )

Wetter aktuell Görlitz

Aktuelles Wetter: Görlitz (240m)

6-stündlich | Neueste Meldungen
Ortszeit Temperatur Wetter
Do, 17.10. 20:00 14.1° C leicht bewölkt
Do, 17.10. 14:00 15.8° C bedeckt
Do, 17.10. 8:00 11.5° C bedeckt
Do, 17.10. 2:00 12.4° C bewölkt
Mi, 16.10. 20:00 12.1° C bedeckt
Mi, 16.10. 14:00 14.4° C bewölkt
Mi, 16.10. 8:00 14.1° C bedeckt
Mi, 16.10. 2:00 11.4° C wolkenlos
Ortszeit Temperatur Wetter
Do, 17.10. 22:00 11.0° C wolkenlos
Do, 17.10. 21:50 11.0° C wolkenlos
Do, 17.10. 21:40 12.5° C leicht bewölkt
Do, 17.10. 21:30 12.8° C wolkig
Do, 17.10. 21:20 12.8° C wolkig
Do, 17.10. 21:10 12.1° C wolkig
Do, 17.10. 21:00 12.8° C leicht bewölkt
Do, 17.10. 20:30 12.9° C wolkig
Do, 17.10. 20:00 14.1° C leicht bewölkt
Do, 17.10. 19:30 14.3° C bedeckt
Do, 17.10. 19:00 14.9° C bewölkt
Ortszeit Relative Feuchte Sichtweite
Do, 17.10. 20:00 66% >70 km
Do, 17.10. 14:00 57% 60 km
Do, 17.10. 8:00 66% >70 km
Do, 17.10. 2:00 69% >70 km
Mi, 16.10. 20:00 71% >70 km
Mi, 16.10. 14:00 67% >70 km
Mi, 16.10. 8:00 83% 21 km
Mi, 16.10. 2:00 90% 11 km
Ortszeit Relative Feuchte Sichtweite
Do, 17.10. 22:00 75% 60 km
Do, 17.10. 21:50 75% -
Do, 17.10. 21:40 72% -
Do, 17.10. 21:30 73% 60 km
Do, 17.10. 21:20 73% -
Do, 17.10. 21:10 75% -
Do, 17.10. 21:00 72% 60 km
Do, 17.10. 20:30 71% 40 km
Do, 17.10. 20:00 66% >70 km
Do, 17.10. 19:30 65% 65 km
Do, 17.10. 19:00 62% >70 km
Ortszeit Niederschlagsmenge Niederschlagsart
Do, 17.10. 20:00 0.0 l/m2 in 12 Std. -
Do, 17.10. 14:00 0.0 l/m2 in 6 Std. -
Do, 17.10. 8:00 0.0 l/m2 in 12 Std. -
Do, 17.10. 2:00 0.0 l/m2 in 6 Std. -
Mi, 16.10. 20:00 0.7 l/m2 in 12 Std. Regen
Mi, 16.10. 14:00 0.7 l/m2 in 6 Std. Regen
Mi, 16.10. 8:00 0.0 l/m2 in 12 Std. -
Mi, 16.10. 2:00 0.0 l/m2 in 6 Std. -
Ortszeit Niederschlagsmenge Niederschlagsart
Do, 17.10. 22:00 0.0 l/m2 in 1 Std. -
Do, 17.10. 21:50 keine Meldung -
Do, 17.10. 21:40 keine Meldung -
Do, 17.10. 21:30 0.0 l/m2 in 1 Std. -
Do, 17.10. 21:20 keine Meldung -
Do, 17.10. 21:10 keine Meldung -
Do, 17.10. 21:00 0.0 l/m2 in 1 Std. -
Do, 17.10. 20:30 0.0 l/m2 in 1 Std. -
Do, 17.10. 20:00 0.0 l/m2 in 1 Std. -
Do, 17.10. 19:30 0.0 l/m2 in 1 Std. -
Do, 17.10. 19:00 0.0 l/m2 in 1 Std. -
Ortszeit Stärke Spitze Richtung
km/h Bft. km/h Grad Sektor
Do, 17.10. 20:00 18 3 29 210° SW
Do, 17.10. 14:00 17 3 41 180° S
Do, 17.10. 8:00 19 3 39 220° SW
Do, 17.10. 2:00 19 3 35 210° SW
Mi, 16.10. 20:00 18 3 54 220° SW
Mi, 16.10. 14:00 25 4 47 230° SW
Mi, 16.10. 8:00 20 4 39 230° SW
Mi, 16.10. 2:00 11 2 25 230° SW
Ortszeit Stärke Spitze Richtung
km/h Bft. km/h Grad Sektor
Do, 17.10. 22:00 7 2 14 230° SW
Do, 17.10. 21:50 7 2 - 230° SW
Do, 17.10. 21:40 6 1 - 250° W
Do, 17.10. 21:30 6 1 15 220° SW
Do, 17.10. 21:20 6 1 - 220° SW
Do, 17.10. 21:10 7 2 - 220° SW
Do, 17.10. 21:00 11 2 25 230° SW
Do, 17.10. 20:30 13 3 24 220° SW
Do, 17.10. 20:00 18 3 29 210° SW
Do, 17.10. 19:30 17 3 28 210° SW
Do, 17.10. 19:00 18 3 29 210° SW
Ortszeit Untergrenze Bedeckung Gattung
total tief tief mittel hoch
Do, 17.10. 20:00 2700 m 2/8 2/8 - - -
Do, 17.10. 14:00 4800 m 8/8 8/8 - - -
Do, 17.10. 8:00 4500 m 8/8 8/8 - - -
Do, 17.10. 2:00 1290 m 7/8 7/8 - - -
Mi, 16.10. 20:00 1800 m 8/8 8/8 - - -
Mi, 16.10. 14:00 1080 m 8/8 7/8 - - -
Mi, 16.10. 8:00 570 m 8/8 8/8 - - -
Mi, 16.10. 2:00 - 0/8 0/8 - - -
Ortszeit Bedeckungsgrad in Achtel und Wolkenuntergrenze
Do, 17.10. 22:00 keine Wolken
Do, 17.10. 21:50 keine Wolken
Do, 17.10. 21:40 1(6600m) 2(8100m)
Do, 17.10. 21:30 5(6600m) 6(8100m)
Do, 17.10. 21:20 5(6600m) 6(8100m)
Do, 17.10. 21:10 5(6600m) 5(8700m)
Do, 17.10. 21:00 2(2400m) 4(8700m)
Do, 17.10. 20:30 6(2400m) 6(8100m) 7(8700m)
Do, 17.10. 20:00 2(2700m)
Do, 17.10. 19:30 8(2400m)
Do, 17.10. 19:00 7(2700m)
Ortszeit Luftdruck NN (hPa) Tendenz (hPa in 3 Std.)
Do, 17.10. 20:00 1015 - 0,3
Do, 17.10. 14:00 1015 - 0,5
Do, 17.10. 8:00 1015 + 0,3
Do, 17.10. 2:00 1015 + 0,3
Mi, 16.10. 20:00 1014 + 0,5
Mi, 16.10. 14:00 1012 + 1,4
Mi, 16.10. 8:00 1008 + 1,2
Mi, 16.10. 2:00 1006 0,0
Ortszeit Luftdruck NN (hPa) Tendenz (hPa in 3 Std.)
Do, 17.10. 22:00 1015 - 0,1
Do, 17.10. 21:50 1015 keine Meldung
Do, 17.10. 21:40 1015 keine Meldung
Do, 17.10. 21:30 1015 0,0
Do, 17.10. 21:20 1015 keine Meldung
Do, 17.10. 21:10 1015 keine Meldung
Do, 17.10. 21:00 1015 + 0,1
Do, 17.10. 20:30 1015 0,0
Do, 17.10. 20:00 1015 - 0,3
Do, 17.10. 19:30 1015 - 0,2
Do, 17.10. 19:00 1015 + 0,1
Ortszeit Schneehöhe (cm)
Do, 17.10. 20:00 0
Do, 17.10. 14:00 0
Do, 17.10. 8:00 0
Do, 17.10. 2:00 0
Mi, 16.10. 20:00 0
Mi, 16.10. 14:00 0
Mi, 16.10. 8:00 0
Mi, 16.10. 2:00 0
Ortszeit Schneehöhe (cm)
Do, 17.10. 22:00 0
Do, 17.10. 21:50 0
Do, 17.10. 21:40 0
Do, 17.10. 21:30 0
Do, 17.10. 21:20 0
Do, 17.10. 21:10 0
Do, 17.10. 21:00 0
Do, 17.10. 20:30 0
Do, 17.10. 20:00 0
Do, 17.10. 19:30 0
Do, 17.10. 19:00 0
Link zu dieser Seite / Seite empfehlen

Das Wetter in ...